createdAt,value
2019-04-04T00:00:14.336Z,958.23
2019-04-04T00:01:13.197Z,958.21
2019-04-04T00:02:13.188Z,958.26
2019-04-04T00:03:13.168Z,958.27
2019-04-04T00:04:13.262Z,958.23
2019-04-04T00:05:13.146Z,958.17
2019-04-04T00:06:13.137Z,958.16
2019-04-04T00:07:13.141Z,958.10
2019-04-04T00:08:13.116Z,958.14
2019-04-04T00:09:13.133Z,958.12
2019-04-04T00:10:13.092Z,958.14
2019-04-04T00:11:13.145Z,958.09
2019-04-04T00:12:13.073Z,958.09
2019-04-04T00:13:13.058Z,958.08
2019-04-04T00:14:13.531Z,958.11
2019-04-04T00:15:14.937Z,958.11
2019-04-04T00:16:15.617Z,958.15
2019-04-04T00:17:13.033Z,958.05
2019-04-04T00:18:13.038Z,958.06
2019-04-04T00:19:12.993Z,958.09
2019-04-04T00:20:12.983Z,958.13
2019-04-04T00:21:12.973Z,958.09
2019-04-04T00:22:12.997Z,958.07
2019-04-04T00:23:12.964Z,958.08
2019-04-04T00:24:12.952Z,958.06
2019-04-04T00:25:12.934Z,958.09
2019-04-04T00:26:12.920Z,958.05
2019-04-04T00:27:13.656Z,958.07
2019-04-04T00:28:14.848Z,958.06
2019-04-04T00:29:12.895Z,958.05
2019-04-04T00:30:12.880Z,957.97
2019-04-04T00:31:12.866Z,957.97
2019-04-04T00:32:12.852Z,958.02
2019-04-04T00:33:12.848Z,958.00
2019-04-04T00:34:13.765Z,958.06
2019-04-04T00:35:12.822Z,958.04
2019-04-04T00:36:12.840Z,958.04
2019-04-04T00:37:12.802Z,958.12
2019-04-04T00:38:12.798Z,958.14
2019-04-04T00:39:12.794Z,958.08
2019-04-04T00:40:12.795Z,958.03
2019-04-04T00:41:13.000Z,958.01
2019-04-04T00:42:12.764Z,958.00
2019-04-04T00:43:12.741Z,958.03
2019-04-04T00:44:12.727Z,958.09
2019-04-04T00:45:12.722Z,958.04
2019-04-04T00:46:12.705Z,957.99
2019-04-04T00:47:12.699Z,957.92
2019-04-04T00:48:12.745Z,957.94
2019-04-04T00:49:12.679Z,957.93
2019-04-04T00:50:12.674Z,957.98
2019-04-04T00:51:12.666Z,957.96
2019-04-04T00:52:12.651Z,958.01
2019-04-04T00:53:12.649Z,957.93
2019-04-04T00:54:14.104Z,957.92
2019-04-04T00:55:15.546Z,957.91
2019-04-04T00:56:12.600Z,957.92
2019-04-04T00:57:12.588Z,957.86
2019-04-04T00:58:12.584Z,957.91
2019-04-04T00:59:12.565Z,957.96
2019-04-04T01:00:12.574Z,958.01
2019-04-04T01:01:12.575Z,957.98
2019-04-04T01:02:12.538Z,958.05
2019-04-04T01:03:12.527Z,958.08
2019-04-04T01:04:12.517Z,958.01
2019-04-04T01:05:12.520Z,957.98
2019-04-04T01:06:12.493Z,958.00
2019-04-04T01:07:12.484Z,957.99
2019-04-04T01:08:12.482Z,957.94
2019-04-04T01:09:13.729Z,957.88
2019-04-04T01:10:12.459Z,957.84
2019-04-04T01:11:12.437Z,957.80
2019-04-04T01:12:12.426Z,957.86
2019-04-04T01:13:12.415Z,957.84
2019-04-04T01:14:12.404Z,957.78
2019-04-04T01:15:12.413Z,957.77
2019-04-04T01:16:12.390Z,957.75
2019-04-04T01:17:12.386Z,957.78
2019-04-04T01:18:12.377Z,957.81
2019-04-04T01:19:12.349Z,957.88
2019-04-04T01:20:12.352Z,957.91
2019-04-04T01:21:12.365Z,957.88
2019-04-04T01:22:12.318Z,957.82
2019-04-04T01:23:12.318Z,957.89
2019-04-04T01:24:12.313Z,957.85
2019-04-04T01:25:12.289Z,957.84
2019-04-04T01:26:12.300Z,957.85
2019-04-04T01:27:12.284Z,957.80
2019-04-04T01:28:12.254Z,957.80
2019-04-04T01:29:12.244Z,957.76
2019-04-04T01:30:12.736Z,957.72
2019-04-04T01:31:14.745Z,957.79
2019-04-04T01:32:12.231Z,957.84
2019-04-04T01:33:12.211Z,957.74
2019-04-04T01:34:12.185Z,957.77
2019-04-04T01:35:12.187Z,957.76
2019-04-04T01:36:12.177Z,957.77
2019-04-04T01:37:12.233Z,957.76
2019-04-04T01:38:12.160Z,957.73
2019-04-04T01:39:12.134Z,957.68
2019-04-04T01:40:12.123Z,957.67
2019-04-04T01:41:12.121Z,957.67
2019-04-04T01:42:12.114Z,957.58
2019-04-04T01:43:12.090Z,957.69
2019-04-04T01:44:12.114Z,957.70
2019-04-04T01:45:13.084Z,957.76
2019-04-04T01:46:12.981Z,957.71
2019-04-04T01:47:12.046Z,957.73
2019-04-04T01:48:12.056Z,957.61
2019-04-04T01:49:26.979Z,957.61
2019-04-04T01:50:12.038Z,957.54
2019-04-04T01:51:12.013Z,957.51
2019-04-04T01:52:12.008Z,957.58
2019-04-04T01:53:12.008Z,957.57
2019-04-04T01:54:11.968Z,957.54
2019-04-04T01:55:11.975Z,957.51
2019-04-04T01:56:11.971Z,957.41
2019-04-04T01:57:11.941Z,957.48
2019-04-04T01:58:11.938Z,957.43
2019-04-04T01:59:12.249Z,957.40
2019-04-04T02:00:14.748Z,957.39
2019-04-04T02:01:11.911Z,957.31
2019-04-04T02:02:11.884Z,957.39
2019-04-04T02:03:11.869Z,957.30
2019-04-04T02:04:11.861Z,957.31
2019-04-04T02:05:11.856Z,957.31
2019-04-04T02:06:11.846Z,957.32
2019-04-04T02:07:11.841Z,957.29
2019-04-04T02:08:11.823Z,957.27
2019-04-04T02:09:11.814Z,957.30
2019-04-04T02:10:11.850Z,957.33
2019-04-04T02:11:11.790Z,957.30
2019-04-04T02:12:11.787Z,957.33
2019-04-04T02:13:11.786Z,957.25
2019-04-04T02:14:12.434Z,957.22
2019-04-04T02:15:13.803Z,957.24
2019-04-04T02:16:11.746Z,957.17
2019-04-04T02:17:12.179Z,957.15
2019-04-04T02:18:11.716Z,957.14
2019-04-04T02:19:11.700Z,957.18
2019-04-04T02:20:11.718Z,957.15
2019-04-04T02:21:11.676Z,957.17
2019-04-04T02:22:11.678Z,957.08
2019-04-04T02:23:11.668Z,957.18
2019-04-04T02:24:11.649Z,957.11
2019-04-04T02:25:11.633Z,957.11
2019-04-04T02:26:11.641Z,957.09
2019-04-04T02:27:12.170Z,957.06
2019-04-04T02:28:11.630Z,957.06
2019-04-04T02:29:11.726Z,957.09
2019-04-04T02:30:14.936Z,956.99
2019-04-04T02:31:11.579Z,956.93
2019-04-04T02:32:11.570Z,956.90
2019-04-04T02:33:11.548Z,956.94
2019-04-04T02:34:11.555Z,956.95
2019-04-04T02:35:11.858Z,956.92
2019-04-04T02:36:16.196Z,957.02
2019-04-04T02:37:12.516Z,956.97
2019-04-04T02:38:11.503Z,956.99
2019-04-04T02:39:11.523Z,956.93
2019-04-04T02:40:11.515Z,956.98
2019-04-04T02:41:14.971Z,956.97
2019-04-04T02:42:11.509Z,956.95
2019-04-04T02:43:11.457Z,956.93
2019-04-04T02:44:11.453Z,956.92
2019-04-04T02:45:11.448Z,956.89
2019-04-04T02:46:12.393Z,956.87
2019-04-04T02:47:11.409Z,956.88
2019-04-04T02:48:11.389Z,956.94
2019-04-04T02:49:11.379Z,956.89
2019-04-04T02:50:11.363Z,956.88
2019-04-04T02:51:11.396Z,956.82
2019-04-04T02:52:13.322Z,956.90
2019-04-04T02:53:11.354Z,956.88
2019-04-04T02:54:11.328Z,956.88
2019-04-04T02:55:11.330Z,956.90
2019-04-04T02:56:11.301Z,956.91
2019-04-04T02:57:11.354Z,956.79
2019-04-04T02:58:14.239Z,956.71
2019-04-04T02:59:11.290Z,956.70
2019-04-04T03:00:11.257Z,956.70
2019-04-04T03:01:11.252Z,956.67
2019-04-04T03:02:11.246Z,956.64
2019-04-04T03:03:11.282Z,956.69
2019-04-04T03:04:13.615Z,956.78
2019-04-04T03:05:11.224Z,956.77
2019-04-04T03:06:11.204Z,956.85
2019-04-04T03:07:11.209Z,956.82
2019-04-04T03:08:11.193Z,956.83
2019-04-04T03:09:11.163Z,956.76
2019-04-04T03:10:15.258Z,956.75
2019-04-04T03:11:12.200Z,956.73
2019-04-04T03:12:11.130Z,956.72
2019-04-04T03:13:11.159Z,956.76
2019-04-04T03:14:11.112Z,956.74
2019-04-04T03:15:11.100Z,956.75
2019-04-04T03:16:11.113Z,956.74
2019-04-04T03:17:11.074Z,956.74
2019-04-04T03:18:11.077Z,956.71
2019-04-04T03:19:11.303Z,956.69
2019-04-04T03:20:11.046Z,956.60
2019-04-04T03:21:11.041Z,956.60
2019-04-04T03:22:11.028Z,956.64
2019-04-04T03:23:11.012Z,956.59
2019-04-04T03:24:11.063Z,956.46
2019-04-04T03:25:14.253Z,956.44
2019-04-04T03:26:10.995Z,956.39
2019-04-04T03:27:10.974Z,956.43
2019-04-04T03:28:10.961Z,956.40
2019-04-04T03:29:11.070Z,956.43
2019-04-04T03:30:14.529Z,956.55
2019-04-04T03:31:11.921Z,956.50
2019-04-04T03:32:14.431Z,956.49
2019-04-04T03:33:11.959Z,956.50
2019-04-04T03:34:12.560Z,956.44
2019-04-04T03:35:10.882Z,956.49
2019-04-04T03:36:10.873Z,956.44
2019-04-04T03:37:12.479Z,956.34
2019-04-04T03:38:13.483Z,956.42
2019-04-04T03:39:10.843Z,956.42
2019-04-04T03:40:10.876Z,956.41
2019-04-04T03:41:10.879Z,956.35
2019-04-04T03:42:10.869Z,956.38
2019-04-04T03:43:10.851Z,956.44
2019-04-04T03:44:10.804Z,956.36
2019-04-04T03:45:10.843Z,956.38
2019-04-04T03:46:10.761Z,956.39
2019-04-04T03:47:11.377Z,956.32
2019-04-04T03:48:10.759Z,956.27
2019-04-04T03:49:10.782Z,956.22
2019-04-04T03:50:10.747Z,956.19
2019-04-04T03:51:10.714Z,956.16
2019-04-04T03:52:11.613Z,956.18
2019-04-04T03:53:10.690Z,956.19
2019-04-04T03:54:10.707Z,956.17
2019-04-04T03:55:10.667Z,956.18
2019-04-04T03:56:10.656Z,956.09
2019-04-04T03:57:12.184Z,956.16
2019-04-04T03:58:10.646Z,956.13
2019-04-04T03:59:10.739Z,956.03
2019-04-04T04:00:10.615Z,956.06
2019-04-04T04:01:13.021Z,956.01
2019-04-04T04:02:10.591Z,956.07
2019-04-04T04:03:10.593Z,956.06
2019-04-04T04:04:10.571Z,956.05
2019-04-04T04:05:12.943Z,956.02
2019-04-04T04:06:10.583Z,955.96
2019-04-04T04:07:13.857Z,955.94
2019-04-04T04:08:10.540Z,955.92
2019-04-04T04:09:10.537Z,955.92
2019-04-04T04:10:10.510Z,955.91
2019-04-04T04:11:10.494Z,955.94
2019-04-04T04:12:11.377Z,955.90
2019-04-04T04:13:10.484Z,955.87
2019-04-04T04:14:10.485Z,955.87
2019-04-04T04:15:10.464Z,955.86
2019-04-04T04:16:10.441Z,955.83
2019-04-04T04:17:11.697Z,955.77
2019-04-04T04:18:10.454Z,955.80
2019-04-04T04:19:10.481Z,955.76
2019-04-04T04:20:10.490Z,955.78
2019-04-04T04:21:11.296Z,955.73
2019-04-04T04:22:12.872Z,955.76
2019-04-04T04:23:10.396Z,955.72
2019-04-04T04:24:10.410Z,955.76
2019-04-04T04:25:10.363Z,955.72
2019-04-04T04:26:10.327Z,955.74
2019-04-04T04:27:14.496Z,955.77
2019-04-04T04:28:11.443Z,955.77
2019-04-04T04:29:10.311Z,955.81
2019-04-04T04:30:10.512Z,955.76
2019-04-04T04:31:14.317Z,955.78
2019-04-04T04:32:10.353Z,955.73
2019-04-04T04:33:10.342Z,955.74
2019-04-04T04:34:10.281Z,955.79
2019-04-04T04:35:10.742Z,955.77
2019-04-04T04:36:14.697Z,955.79
2019-04-04T04:37:11.223Z,955.75
2019-04-04T04:38:10.213Z,955.76
2019-04-04T04:39:10.188Z,955.71
2019-04-04T04:40:13.812Z,955.77
2019-04-04T04:41:10.179Z,955.75
2019-04-04T04:42:10.158Z,955.78
2019-04-04T04:43:10.145Z,955.70
2019-04-04T04:44:10.144Z,955.73
2019-04-04T04:45:12.088Z,955.74
2019-04-04T04:46:10.140Z,955.71
2019-04-04T04:47:10.101Z,955.72
2019-04-04T04:48:10.105Z,955.69
2019-04-04T04:49:10.135Z,955.71
2019-04-04T04:50:10.152Z,955.67
2019-04-04T04:51:11.971Z,955.61
2019-04-04T04:52:10.117Z,955.63
2019-04-04T04:53:10.037Z,955.58
2019-04-04T04:54:10.070Z,955.64
2019-04-04T04:55:12.051Z,955.57
2019-04-04T04:56:10.030Z,955.46
2019-04-04T04:57:14.430Z,955.49
2019-04-04T04:58:11.219Z,955.46
2019-04-04T04:59:12.872Z,955.41
2019-04-04T05:00:10.106Z,955.44
2019-04-04T05:01:09.963Z,955.40
2019-04-04T05:02:09.954Z,955.41
2019-04-04T05:03:09.943Z,955.46
2019-04-04T05:04:09.937Z,955.37
2019-04-04T05:05:09.913Z,955.40
2019-04-04T05:06:09.892Z,955.38
2019-04-04T05:07:09.920Z,955.38
2019-04-04T05:08:10.602Z,955.37
2019-04-04T05:09:09.865Z,955.37
2019-04-04T05:10:09.860Z,955.37
2019-04-04T05:11:09.956Z,955.42
2019-04-04T05:12:09.829Z,955.44
2019-04-04T05:13:09.828Z,955.39
2019-04-04T05:14:09.821Z,955.46
2019-04-04T05:15:09.815Z,955.52
2019-04-04T05:16:09.785Z,955.53
2019-04-04T05:17:10.106Z,955.46
2019-04-04T05:18:11.888Z,955.43
2019-04-04T05:19:09.797Z,955.33
2019-04-04T05:20:09.747Z,955.40
2019-04-04T05:21:09.731Z,955.37
2019-04-04T05:22:09.831Z,955.40
2019-04-04T05:23:11.080Z,955.34
2019-04-04T05:24:09.716Z,955.37
2019-04-04T05:25:09.691Z,955.42
2019-04-04T05:26:09.908Z,955.37
2019-04-04T05:27:09.702Z,955.33
2019-04-04T05:28:10.828Z,955.24
2019-04-04T05:29:13.262Z,955.24
2019-04-04T05:30:09.636Z,955.19
2019-04-04T05:31:09.626Z,955.19
2019-04-04T05:32:09.689Z,955.17
2019-04-04T05:33:09.618Z,955.11
2019-04-04T05:34:09.650Z,955.19
2019-04-04T05:35:09.693Z,955.12
2019-04-04T05:36:09.786Z,955.10
2019-04-04T05:37:10.439Z,955.05
2019-04-04T05:38:12.250Z,955.01
2019-04-04T05:39:09.591Z,955.10
2019-04-04T05:40:09.657Z,954.98
2019-04-04T05:41:09.519Z,954.95
2019-04-04T05:42:09.505Z,954.93
2019-04-04T05:43:09.520Z,955.01
2019-04-04T05:44:10.316Z,955.04
2019-04-04T05:45:09.492Z,955.03
2019-04-04T05:46:09.489Z,955.07
2019-04-04T05:47:09.564Z,955.11
2019-04-04T05:48:09.447Z,955.12
2019-04-04T05:49:09.567Z,955.06
2019-04-04T05:50:11.337Z,955.08
2019-04-04T05:51:09.437Z,955.00
2019-04-04T05:52:09.390Z,954.93
2019-04-04T05:53:09.383Z,954.92
2019-04-04T05:54:09.561Z,954.87
2019-04-04T05:55:10.824Z,954.83
2019-04-04T05:56:09.349Z,954.80
2019-04-04T05:57:09.337Z,954.79
2019-04-04T05:58:09.331Z,954.82
2019-04-04T05:59:09.319Z,954.77
2019-04-04T06:00:09.307Z,954.81
2019-04-04T06:01:09.306Z,954.84
2019-04-04T06:02:11.537Z,954.84
2019-04-04T06:03:09.290Z,954.80
2019-04-04T06:04:09.272Z,954.74
2019-04-04T06:05:09.291Z,954.79
2019-04-04T06:06:10.568Z,954.82
2019-04-04T06:07:09.256Z,954.72
2019-04-04T06:08:09.216Z,954.71
2019-04-04T06:09:09.250Z,954.71
2019-04-04T06:10:11.863Z,954.58
2019-04-04T06:11:09.228Z,954.60
2019-04-04T06:12:09.173Z,954.60
2019-04-04T06:13:09.175Z,954.64
2019-04-04T06:14:09.153Z,954.55
2019-04-04T06:15:09.154Z,954.53
2019-04-04T06:16:09.162Z,954.49
2019-04-04T06:17:09.131Z,954.50
2019-04-04T06:18:11.758Z,954.54
2019-04-04T06:19:09.096Z,954.52
2019-04-04T06:20:09.088Z,954.53
2019-04-04T06:21:09.095Z,954.49
2019-04-04T06:22:09.065Z,954.51
2019-04-04T06:23:09.267Z,954.46
2019-04-04T06:24:09.041Z,954.46
2019-04-04T06:25:09.035Z,954.30
2019-04-04T06:26:09.236Z,954.46
2019-04-04T06:27:09.712Z,954.43
2019-04-04T06:28:09.887Z,954.44
2019-04-04T06:29:08.991Z,954.35
2019-04-04T06:30:09.009Z,954.36
2019-04-04T06:31:09.012Z,954.30
2019-04-04T06:32:08.961Z,954.37
2019-04-04T06:33:08.946Z,954.28
2019-04-04T06:34:10.410Z,954.33
2019-04-04T06:35:09.001Z,954.36
2019-04-04T06:36:08.930Z,954.31
2019-04-04T06:37:08.910Z,954.25
2019-04-04T06:38:08.890Z,954.29
2019-04-04T06:39:08.879Z,954.22
2019-04-04T06:40:08.869Z,954.16
2019-04-04T06:41:08.857Z,954.17
2019-04-04T06:42:11.226Z,954.13
2019-04-04T06:43:11.621Z,954.17
2019-04-04T06:44:08.836Z,954.15
2019-04-04T06:45:08.829Z,954.12
2019-04-04T06:46:08.804Z,954.05
2019-04-04T06:47:08.798Z,954.05
2019-04-04T06:48:08.799Z,954.04
2019-04-04T06:49:08.776Z,953.98
2019-04-04T06:50:08.771Z,953.94
2019-04-04T06:51:08.750Z,953.94
2019-04-04T06:52:09.494Z,953.98
2019-04-04T06:53:08.740Z,953.92
2019-04-04T06:54:08.723Z,953.93
2019-04-04T06:55:08.711Z,953.95
2019-04-04T06:56:08.708Z,953.91
2019-04-04T06:57:08.712Z,953.86
2019-04-04T06:58:09.649Z,953.85
2019-04-04T06:59:11.367Z,953.77
2019-04-04T07:00:08.667Z,953.71
2019-04-04T07:01:10.999Z,953.70
2019-04-04T07:02:08.673Z,953.75
2019-04-04T07:03:08.626Z,953.70
2019-04-04T07:04:08.623Z,953.78
2019-04-04T07:05:10.608Z,953.78
2019-04-04T07:06:10.238Z,953.70
2019-04-04T07:07:08.589Z,953.70
2019-04-04T07:08:08.581Z,953.69
2019-04-04T07:09:08.562Z,953.68
2019-04-04T07:10:08.554Z,953.66
2019-04-04T07:11:21.079Z,953.56
2019-04-04T07:12:20.913Z,953.57
2019-04-04T07:13:20.973Z,953.53
2019-04-04T07:14:09.560Z,953.49
2019-04-04T07:15:11.120Z,953.53
2019-04-04T07:16:08.489Z,953.48
2019-04-04T07:17:09.436Z,953.45
2019-04-04T07:18:10.170Z,953.44
2019-04-04T07:19:08.470Z,953.44
2019-04-04T07:20:08.444Z,953.39
2019-04-04T07:21:08.448Z,953.33
2019-04-04T07:22:08.421Z,953.39
2019-04-04T07:23:08.415Z,953.34
2019-04-04T07:24:08.394Z,953.35
2019-04-04T07:25:08.394Z,953.40
2019-04-04T07:26:09.615Z,953.36
2019-04-04T07:27:08.362Z,953.32
2019-04-04T07:28:08.434Z,953.36
2019-04-04T07:29:08.349Z,953.32
2019-04-04T07:30:08.329Z,953.33
2019-04-04T07:31:08.324Z,953.37
2019-04-04T07:32:09.477Z,953.30
2019-04-04T07:33:10.058Z,953.33
2019-04-04T07:34:08.292Z,953.27
2019-04-04T07:35:08.292Z,953.31
2019-04-04T07:36:08.267Z,953.28
2019-04-04T07:37:08.291Z,953.25
2019-04-04T07:38:08.251Z,953.25
2019-04-04T07:39:08.236Z,953.34
2019-04-04T07:40:08.231Z,953.24
2019-04-04T07:41:09.064Z,953.23
2019-04-04T07:42:08.232Z,953.30
2019-04-04T07:43:08.705Z,953.24
2019-04-04T07:44:08.178Z,953.22
2019-04-04T07:45:08.166Z,953.11
2019-04-04T07:46:16.389Z,953.12
2019-04-04T07:47:09.145Z,953.13
2019-04-04T07:48:08.130Z,953.16
2019-04-04T07:49:08.132Z,953.14
2019-04-04T07:50:08.106Z,953.13
2019-04-04T07:51:08.100Z,953.12
2019-04-04T07:52:08.085Z,953.14
2019-04-04T07:53:08.128Z,953.10
2019-04-04T07:54:08.128Z,953.03
2019-04-04T07:55:10.296Z,952.98
2019-04-04T07:56:08.042Z,952.97
2019-04-04T07:57:08.033Z,952.91
2019-04-04T07:58:08.030Z,953.02
2019-04-04T07:59:08.009Z,952.93
2019-04-04T08:00:08.002Z,952.90
2019-04-04T08:01:08.012Z,952.97
2019-04-04T08:02:07.979Z,953.02
2019-04-04T08:03:07.969Z,953.02
2019-04-04T08:04:07.961Z,952.96
2019-04-04T08:05:07.948Z,953.04
2019-04-04T08:06:07.935Z,952.99
2019-04-04T08:07:07.925Z,952.97
2019-04-04T08:08:07.914Z,953.00
2019-04-04T08:09:07.909Z,953.01
2019-04-04T08:10:19.592Z,953.00
2019-04-04T08:11:08.879Z,952.93
2019-04-04T08:12:07.866Z,952.92
2019-04-04T08:13:07.855Z,952.94
2019-04-04T08:14:07.855Z,952.94
2019-04-04T08:15:07.837Z,952.87
2019-04-04T08:16:07.858Z,952.93
2019-04-04T08:17:07.812Z,952.91
2019-04-04T08:18:07.881Z,952.92
2019-04-04T08:19:07.812Z,952.77
2019-04-04T08:20:07.780Z,952.85
2019-04-04T08:21:07.766Z,952.77
2019-04-04T08:22:07.797Z,952.71
2019-04-04T08:23:07.749Z,952.68
2019-04-04T08:24:07.737Z,952.67
2019-04-04T08:25:07.743Z,952.63
2019-04-04T08:26:10.064Z,952.57
2019-04-04T08:27:07.712Z,952.59
2019-04-04T08:28:07.695Z,952.68
2019-04-04T08:29:07.694Z,952.73
2019-04-04T08:30:07.680Z,952.81
2019-04-04T08:31:09.855Z,952.75
2019-04-04T08:32:07.653Z,952.69
2019-04-04T08:33:07.645Z,952.64
2019-04-04T08:34:07.630Z,952.67
2019-04-04T08:35:07.626Z,952.67
2019-04-04T08:36:07.604Z,952.64
2019-04-04T08:37:07.600Z,952.64
2019-04-04T08:38:07.607Z,952.64
2019-04-04T08:39:07.572Z,952.65
2019-04-04T08:40:07.575Z,952.64
2019-04-04T08:41:07.552Z,952.66
2019-04-04T08:42:07.543Z,952.65
2019-04-04T08:43:07.530Z,952.62
2019-04-04T08:44:07.524Z,952.63
2019-04-04T08:45:07.529Z,952.59
2019-04-04T08:46:07.496Z,952.61
2019-04-04T08:47:07.485Z,952.64
2019-04-04T08:48:07.478Z,952.61
2019-04-04T08:49:07.464Z,952.57
2019-04-04T08:50:07.465Z,952.52
2019-04-04T08:51:07.449Z,952.50
2019-04-04T08:52:16.446Z,952.49
2019-04-04T08:53:08.420Z,952.50
2019-04-04T08:54:07.443Z,952.50
2019-04-04T08:55:07.410Z,952.46
2019-04-04T08:56:07.408Z,952.54
2019-04-04T08:57:07.380Z,952.45
2019-04-04T08:58:07.368Z,952.51
2019-04-04T08:59:07.361Z,952.48
2019-04-04T09:00:07.357Z,952.45
2019-04-04T09:01:07.516Z,952.40
2019-04-04T09:02:07.334Z,952.37
2019-04-04T09:03:07.313Z,952.42
2019-04-04T09:04:07.300Z,952.47
2019-04-04T09:05:12.086Z,952.47
2019-04-04T09:06:08.283Z,952.37
2019-04-04T09:07:07.274Z,952.40
2019-04-04T09:08:07.338Z,952.35
2019-04-04T09:09:07.245Z,952.38
2019-04-04T09:10:07.236Z,952.30
2019-04-04T09:11:07.279Z,952.31
2019-04-04T09:12:07.211Z,952.41
2019-04-04T09:13:07.206Z,952.46
2019-04-04T09:14:07.196Z,952.36
2019-04-04T09:15:07.187Z,952.42
2019-04-04T09:16:07.173Z,952.38
2019-04-04T09:17:07.170Z,952.38
2019-04-04T09:18:07.161Z,952.35
2019-04-04T09:19:07.142Z,952.32
2019-04-04T09:20:09.554Z,952.35
2019-04-04T09:21:07.118Z,952.32
2019-04-04T09:22:10.679Z,952.31
2019-04-04T09:23:07.098Z,952.27
2019-04-04T09:24:07.090Z,952.34
2019-04-04T09:25:10.161Z,952.27
2019-04-04T09:26:07.062Z,952.26
2019-04-04T09:27:07.049Z,952.20
2019-04-04T09:28:07.050Z,952.22
2019-04-04T09:29:07.039Z,952.27
2019-04-04T09:30:07.091Z,952.27
2019-04-04T09:31:07.007Z,952.22
2019-04-04T09:32:06.998Z,952.18
2019-04-04T09:33:06.986Z,952.23
2019-04-04T09:34:06.985Z,952.16
2019-04-04T09:35:06.985Z,952.09
2019-04-04T09:36:06.990Z,952.17
2019-04-04T09:37:08.824Z,952.12
2019-04-04T09:38:06.940Z,952.06
2019-04-04T09:39:06.924Z,952.01
2019-04-04T09:40:06.936Z,952.07
2019-04-04T09:41:06.914Z,952.01
2019-04-04T09:42:06.932Z,951.95
2019-04-04T09:43:06.889Z,952.02
2019-04-04T09:44:06.869Z,951.94
2019-04-04T09:45:06.863Z,951.94
2019-04-04T09:46:06.858Z,951.99
2019-04-04T09:47:06.840Z,951.91
2019-04-04T09:48:06.824Z,951.93
2019-04-04T09:49:06.817Z,951.95
2019-04-04T09:50:06.827Z,951.98
2019-04-04T09:51:06.944Z,951.98
2019-04-04T09:52:06.801Z,952.01
2019-04-04T09:53:06.771Z,952.06
2019-04-04T09:54:06.765Z,952.00
2019-04-04T09:55:06.753Z,951.98
2019-04-04T09:56:06.863Z,951.97
2019-04-04T09:57:06.732Z,952.10
2019-04-04T09:58:06.731Z,952.01
2019-04-04T09:59:06.706Z,952.03
2019-04-04T10:00:06.700Z,952.03
2019-04-04T10:01:06.936Z,952.01
2019-04-04T10:02:06.674Z,952.07
2019-04-04T10:03:06.682Z,952.11
2019-04-04T10:04:06.653Z,952.08
2019-04-04T10:05:06.872Z,951.97
2019-04-04T10:06:06.653Z,952.08
2019-04-04T10:07:06.624Z,952.06
2019-04-04T10:08:06.613Z,952.06
2019-04-04T10:09:15.567Z,952.03
2019-04-04T10:10:07.595Z,951.89
2019-04-04T10:11:06.589Z,951.93
2019-04-04T10:12:06.567Z,952.14
2019-04-04T10:13:06.593Z,952.05
2019-04-04T10:14:06.551Z,952.15
2019-04-04T10:15:06.539Z,952.08
2019-04-04T10:16:06.542Z,952.07
2019-04-04T10:17:06.516Z,952.02
2019-04-04T10:18:06.509Z,952.07
2019-04-04T10:19:06.515Z,952.15
2019-04-04T10:20:06.485Z,952.21
2019-04-04T10:21:12.015Z,952.12
2019-04-04T10:22:07.466Z,952.11
2019-04-04T10:23:06.459Z,952.11
2019-04-04T10:24:06.447Z,952.18
2019-04-04T10:25:06.434Z,952.20
2019-04-04T10:26:06.464Z,952.21
2019-04-04T10:27:06.420Z,952.21
2019-04-04T10:28:06.420Z,952.19
2019-04-04T10:29:06.394Z,952.27
2019-04-04T10:30:06.384Z,952.38
2019-04-04T10:31:06.380Z,952.33
2019-04-04T10:32:06.366Z,952.48
2019-04-04T10:33:06.397Z,952.34
2019-04-04T10:34:06.359Z,952.25
2019-04-04T10:35:06.335Z,952.36
2019-04-04T10:36:06.339Z,952.34
2019-04-04T10:37:06.314Z,952.33
2019-04-04T10:38:06.298Z,952.31
2019-04-04T10:39:06.305Z,952.24
2019-04-04T10:40:06.280Z,952.27
2019-04-04T10:41:06.264Z,952.31
2019-04-04T10:42:06.330Z,952.24
2019-04-04T10:43:06.242Z,952.20
2019-04-04T10:44:06.233Z,952.31
2019-04-04T10:45:06.225Z,952.31
2019-04-04T10:46:06.224Z,952.31
2019-04-04T10:47:06.225Z,952.31
2019-04-04T10:48:06.205Z,952.35
2019-04-04T10:49:08.331Z,952.26
2019-04-04T10:50:06.175Z,952.17
2019-04-04T10:51:06.169Z,952.19
2019-04-04T10:52:06.170Z,952.14
2019-04-04T10:53:06.151Z,952.16
2019-04-04T10:54:06.137Z,952.28
2019-04-04T10:55:06.142Z,952.17
2019-04-04T10:56:06.141Z,952.16
2019-04-04T10:57:06.197Z,952.24
2019-04-04T10:58:06.100Z,952.24
2019-04-04T10:59:06.096Z,952.23
2019-04-04T11:00:06.075Z,952.16
2019-04-04T11:01:06.176Z,952.29
2019-04-04T11:02:06.058Z,952.21
2019-04-04T11:03:06.040Z,952.05
2019-04-04T11:04:06.030Z,952.21
2019-04-04T11:05:06.025Z,952.15
2019-04-04T11:06:06.018Z,952.15
2019-04-04T11:07:06.015Z,952.09
2019-04-04T11:08:06.096Z,952.15
2019-04-04T11:09:05.976Z,952.06
2019-04-04T11:10:05.970Z,951.99
2019-04-04T11:11:05.971Z,952.06
2019-04-04T11:12:05.963Z,952.03
2019-04-04T11:13:05.944Z,952.03
2019-04-04T11:14:05.946Z,951.99
2019-04-04T11:15:05.973Z,951.88
2019-04-04T11:16:05.929Z,951.99
2019-04-04T11:17:05.892Z,952.03
2019-04-04T11:18:05.885Z,952.02
2019-04-04T11:19:05.872Z,952.04
2019-04-04T11:20:05.865Z,952.09
2019-04-04T11:21:05.850Z,952.11
2019-04-04T11:22:05.863Z,952.07
2019-04-04T11:23:05.834Z,952.06
2019-04-04T11:24:05.825Z,951.98
2019-04-04T11:25:05.808Z,952.08
2019-04-04T11:26:05.798Z,952.14
2019-04-04T11:27:06.260Z,952.00
2019-04-04T11:28:05.774Z,952.02
2019-04-04T11:29:05.767Z,952.05
2019-04-04T11:30:05.766Z,951.97
2019-04-04T11:31:05.740Z,952.00
2019-04-04T11:32:05.747Z,951.97
2019-04-04T11:33:05.739Z,951.99
2019-04-04T11:34:05.715Z,951.96
2019-04-04T11:35:05.697Z,951.90
2019-04-04T11:36:05.792Z,951.96
2019-04-04T11:37:05.691Z,951.91
2019-04-04T11:38:05.668Z,951.92
2019-04-04T11:39:05.655Z,951.92
2019-04-04T11:40:05.647Z,951.91
2019-04-04T11:41:05.643Z,951.88
2019-04-04T11:42:05.640Z,951.85
2019-04-04T11:43:05.637Z,951.97
2019-04-04T11:44:05.602Z,951.85
2019-04-04T11:45:05.597Z,951.86
2019-04-04T11:46:05.580Z,951.93
2019-04-04T11:47:05.596Z,951.88
2019-04-04T11:48:05.573Z,951.89
2019-04-04T11:49:05.560Z,951.90
2019-04-04T11:50:05.540Z,951.87
2019-04-04T11:51:05.544Z,951.85
2019-04-04T11:52:05.598Z,951.88
2019-04-04T11:53:05.510Z,951.92
2019-04-04T11:54:05.493Z,951.91
2019-04-04T11:55:05.636Z,951.88
2019-04-04T11:56:05.489Z,951.84
2019-04-04T11:57:05.465Z,951.86
2019-04-04T11:58:05.497Z,951.83
2019-04-04T11:59:08.020Z,951.80
2019-04-04T12:00:05.437Z,951.83
2019-04-04T12:01:05.417Z,951.78
2019-04-04T12:02:05.416Z,951.87
2019-04-04T12:03:05.403Z,951.82
2019-04-04T12:04:05.391Z,951.79
2019-04-04T12:05:05.395Z,951.77
2019-04-04T12:06:05.379Z,951.75
2019-04-04T12:07:05.360Z,951.80
2019-04-04T12:08:05.358Z,951.79
2019-04-04T12:09:05.333Z,951.70
2019-04-04T12:10:07.815Z,951.71
2019-04-04T12:11:05.313Z,951.68
2019-04-04T12:12:05.402Z,951.66
2019-04-04T12:13:05.299Z,951.77
2019-04-04T12:14:05.280Z,951.74
2019-04-04T12:15:05.317Z,951.71
2019-04-04T12:16:05.262Z,951.77
2019-04-04T12:17:05.271Z,951.73
2019-04-04T12:18:05.272Z,951.77
2019-04-04T12:19:05.232Z,951.80
2019-04-04T12:20:05.219Z,951.84
2019-04-04T12:21:05.210Z,951.80
2019-04-04T12:22:05.204Z,951.76
2019-04-04T12:23:05.193Z,951.75
2019-04-04T12:24:05.173Z,951.79
2019-04-04T12:25:05.169Z,951.76
2019-04-04T12:26:05.250Z,951.80
2019-04-04T12:27:05.171Z,951.73
2019-04-04T12:28:05.142Z,951.80